Duarte Cardoso

Olheiro - Porto
5 Ago 2027
Quinta-feira
Processo

Personalidade

Adaptabilidade (16) Ambição (17) Controvérsia (2) Lealdade (17) Pressão (8) Profissionalismo (17) Espírito Esportivo (15) Temperamento (5)

Perfil

Estilo de Treinamento Democrático
Licença Continental B
Determinação 11
Gestão de Pessoas 13
Motivação 10
Disciplina 12
Satisfação no Trabalho
91%
Fadiga
0%
Função Olheiro
Salário 119.5K p/s
Contrato 14.03.2030

Desempenho

Comportamento Bom
Eficácia do Treinamento
45%
Desenvolvimento do Jogador
60%
Prevenção de Lesões
75%
Implementação Tática
45%

Eventos Recentes

Participou de uma reunião de recrutamento agora
Recomendou um alvo de transferência agora
Participou de uma reunião de recrutamento agora
Recomendou um alvo de transferência agora
Recomendou um alvo de transferência agora
Recomendou um alvo de transferência 7d atrás
Recomendou um alvo de transferência 7d atrás
Recomendou um alvo de transferência 7d atrás

Monitorando agora

98
Jogador Clube Status Habilidade Confiança Observado Última observação Último voto
Bertuğ Yıldırım Basaksehir Ativo 120 / 117 40% 3 17.06.2027 -
Sota Kitano Red Bull Salzburg Ativo 121 / 129 40% 1 17.06.2027 -
Mohamed-Ali Cho Hull City Ativo 130 / 136 40% 2 03.06.2027 -
Benjamin Šeško Manchester United Ativo 159 / 160 40% 3 03.06.2027 -
Pau Víctor Braga Ativo 146 / 137 69% 1 02.06.2027 Aprovar
Roberto Alvarado Borussia Mönchengladbach Negociando 139 / 139 66% 1 01.06.2027 Aprovar
Igoh Ogbu Fenerbahce Negociando 147 / 148 79% 1 01.06.2027 -
Erick Sánchez RC Lens Ativo 139 / 139 68% 1 01.06.2027 Aprovar
Luiz Henrique AS Roma Ativo 142 / 143 68% 1 01.06.2027 Aprovar
Raúl Rangel Braga Negociando 132 / 132 89% 1 01.06.2027 -
Younes Ebnoutalib Eintracht Frankfurt Ativo 138 / 136 40% 1 01.06.2027 -
Georginio Rutter Brighton Ativo 147 / 146 40% 8 30.05.2027 -
Assane Diao Como Ativo 140 / 151 40% 13 30.05.2027 -
Mohammed Kudus Tottenham Ativo 161 / 156 40% 1 30.05.2027 -
Xavi Simons Tottenham Ativo 155 / 158 40% 8 28.05.2027 -
Jacob Ramsey Newcastle United Ativo 156 / 146 40% 4 28.05.2027 -
Nicolò Tresoldi Club Brugge Ativo 129 / 136 40% 3 27.05.2027 -
Pedro Porro Tottenham Ativo 151 / 143 40% 5 27.05.2027 -
Manu Koné AS Roma Ativo 173 / 165 40% 5 27.05.2027 -
Boubacar Kamara Aston Villa Ativo 166 / 160 40% 2 27.05.2027 -
Nicolas Jackson Aston Villa Ativo 149 / 150 40% 5 26.05.2027 -
Malick Fofana Sunderland Ativo 150 / 145 40% 3 26.05.2027 -
Emanuel Emegha Chelsea Ativo 142 / 144 40% 5 25.05.2027 -
Jeff Ekhator Juventus Ativo 123 / 132 40% 4 25.05.2027 -
Mathys Tel Tottenham Ativo 138 / 148 40% 2 25.05.2027 -
Amine Adli Bournemouth Ativo 148 / 149 40% 2 24.05.2027 -
Yeremy Pino Crystal Palace Ativo 145 / 157 40% 5 24.05.2027 -
Sindre Walle Egeli Udinese Ativo 126 / 131 40% 4 23.05.2027 -
Savinho Tottenham Ativo 152 / 151 40% 3 19.05.2027 -
João Pedro Chelsea Ativo 158 / 146 40% 4 19.05.2027 -
Mats Wieffer Brighton Ativo 149 / 148 40% 3 19.05.2027 -
Manor Solomon West Ham United Ativo 148 / 134 40% 5 18.05.2027 -
Gonzalo Fulham Ativo 145 / 141 40% 3 17.05.2027 -
Amadou Onana Aston Villa Ativo 161 / 158 40% 2 17.05.2027 -
Morgan Gibbs-White Nottingham Forest Ativo 163 / 148 40% 1 16.05.2027 -
Chemsdine Talbi Sunderland Ativo 138 / 143 40% 5 15.05.2027 -
Matt O'Riley Brighton Ativo 153 / 139 40% 2 15.05.2027 -
Yehor Yarmoliuk Brentford Ativo 152 / 145 40% 1 15.05.2027 -
Mikkel Damsgaard Brentford Ativo 143 / 139 40% 3 12.05.2027 -
Morgan Rogers Chelsea Ativo 157 / 154 40% 5 11.05.2027 -
Amad Manchester United Ativo 149 / 161 40% 9 11.05.2027 -
Kenan Yıldız Juventus Ativo 161 / 163 40% 1 10.05.2027 -
Xavier Biscayzacú Defensor Sporting Ativo 132 / 127 40% 1 10.05.2027 -
Ilyas Ansah Hull City Ativo 128 / 138 40% 2 09.05.2027 -
Santiago Castro AS Roma Ativo 152 / 150 40% 1 09.05.2027 -
Matthis Abline Monaco Ativo 134 / 135 40% 1 08.05.2027 -
Jay Stansfield Birmingham Ativo 124 / 131 40% 1 07.05.2027 -
Quinten Timber Crystal Palace Ativo 157 / 155 40% 3 01.05.2027 -
Moisés Caicedo Chelsea Ativo 165 / 164 40% 2 28.04.2027 -
Kevin Fulham Ativo 153 / 148 40% 3 27.04.2027 -
Lewis Hall Newcastle United Ativo 142 / 157 40% 2 25.04.2027 -
Noni Madueke Arsenal Ativo 162 / 154 40% 1 23.04.2027 -
Miloš Kerkez Liverpool Ativo 160 / 163 40% 1 22.04.2027 -
Óscar Mingueza Crystal Palace Ativo 147 / 150 40% 2 21.04.2027 -
Pablo Felipe West Ham United Ativo 130 / 133 40% 2 19.04.2027 -
Alex Scott Bournemouth Ativo 152 / 148 40% 1 19.04.2027 -
Nico O'Reilly Manchester City Ativo 151 / 152 40% 1 15.04.2027 -
Jadon Sancho Manchester United Ativo 156 / 147 40% 1 15.04.2027 -
Fábio Carvalho Brentford Ativo 135 / 140 40% 3 13.04.2027 -
Adrien Truffert Bournemouth Ativo 144 / 152 40% 2 11.04.2027 -
Curtis Jones Inter Ativo 159 / 151 40% 1 11.04.2027 -
Giacomo Raspadori Atalanta Ativo 150 / 144 40% 1 10.04.2027 -
James Garner Everton Ativo 154 / 147 40% 1 08.04.2027 -
Ryan Oné Sheffield United Ativo 108 / 125 40% 1 07.04.2027 -
André Wolverhampton Ativo 142 / 150 40% 1 05.04.2027 -
Carlos Vicente Birmingham Ativo 145 / 136 40% 4 01.04.2027 -
Kevin Schade Chelsea Ativo 143 / 145 40% 1 01.04.2027 -
Cody Gakpo Liverpool Ativo 154 / 163 40% 1 22.03.2027 -
Nico González Newcastle United Ativo 154 / 166 40% 1 20.03.2027 -
Toni Tamarit Alverca Ativo 123 / 116 40% 1 16.03.2027 -
Giovane Napoli Ativo 140 / 129 40% 1 13.03.2027 -
Yoan Bonny Inter Ativo 144 / 151 40% 1 12.03.2027 -
Samu Aghehowa Nottingham Forest Ativo 147 / 146 40% 2 09.03.2027 -
Rocco Vata Watford Ativo 118 / 123 40% 1 05.03.2027 -
Ole Pohlmann Rio Ave Ativo 129 / 115 69% 1 02.01.2027 Aprovar
Lautaro Martínez Inter Ativo 166 / 169 40% 1 31.12.2026 -
Viktor Gyökeres Arsenal Ativo 152 / 154 40% 1 31.12.2026 -
Dean Henderson Crystal Palace Ativo 144 / 153 40% 2 27.12.2026 -
Diogo Costa Lazio Ativo 171 / 156 40% 7 26.12.2026 -
James Trafford Leeds United Ativo 141 / 141 40% 1 21.12.2026 -
Mads Hermansen West Ham United Ativo 133 / 130 40% 1 21.12.2026 -
Giorgi Mamardashvili Liverpool Ativo 160 / 153 40% 3 20.12.2026 -
Mark Travers Everton Ativo 134 / 132 40% 3 20.12.2026 -
Maduka Okoye Udinese Ativo 140 / 144 40% 2 20.12.2026 -
Zion Suzuki Aston Villa Ativo 140 / 140 40% 3 19.12.2026 -
Senne Lammens Manchester United Ativo 151 / 155 40% 3 11.12.2026 -
Mile Svilar AS Roma Ativo 162 / 159 40% 2 11.12.2026 -
Caoimhin Kelleher Brentford Ativo 143 / 143 40% 1 11.12.2026 -
Elia Caprile Cagliari Ativo 144 / 138 40% 4 08.12.2026 -
Arijanet Murić Sassuolo Ativo 144 / 136 40% 1 06.12.2026 -
Dmytro Riznyk Racing Genk Ativo 135 / 143 40% 2 05.12.2026 -
Marvin Keller Chelsea Ativo 135 / 142 40% 3 03.12.2026 Observar
Justin Bijlow Genoa Ativo 146 / 151 40% 1 03.12.2026 -
Gianluigi Donnarumma Manchester City Ativo 166 / 162 40% 2 02.12.2026 -
Robin Roefs Sunderland Ativo 146 / 146 40% 1 21.11.2026 -
Keisuke Osako Sanfrecce Hiroshima Ativo 132 / 150 40% 1 20.11.2026 -
Alex Meret Napoli Ativo 145 / 148 40% 3 10.11.2026 -
Joseph Leclercq Tottenham Ativo 155 / 153 40% 1 04.11.2026 -